sensor_id;sensor_type;location;lat;lon;timestamp;P1;durP1;ratioP1;P2;durP2;ratioP2
35990;SDS011;22064;42.672;23.282;2023-11-21T00:01:19;0.00;;;0.00;;
35990;SDS011;22064;42.672;23.282;2023-11-21T00:03:44;0.05;;;0.05;;
35990;SDS011;22064;42.672;23.282;2023-11-21T00:06:10;0.00;;;0.00;;
35990;SDS011;22064;42.672;23.282;2023-11-21T00:08:36;0.20;;;0.20;;
35990;SDS011;22064;42.672;23.282;2023-11-21T00:11:02;0.22;;;0.22;;
35990;SDS011;22064;42.672;23.282;2023-11-21T00:13:33;0.00;;;0.00;;
35990;SDS011;22064;42.672;23.282;2023-11-21T00:16:00;0.00;;;0.00;;
35990;SDS011;22064;42.672;23.282;2023-11-21T00:18:26;3.75;;;3.42;;
35990;SDS011;22064;42.672;23.282;2023-11-21T00:20:52;0.00;;;0.00;;
35990;SDS011;22064;42.672;23.282;2023-11-21T00:23:17;0.20;;;0.20;;
35990;SDS011;22064;42.672;23.282;2023-11-21T00:25:43;0.00;;;0.00;;
35990;SDS011;22064;42.672;23.282;2023-11-21T00:28:09;0.10;;;0.10;;
35990;SDS011;22064;42.672;23.282;2023-11-21T00:30:35;0.17;;;0.17;;
35990;SDS011;22064;42.672;23.282;2023-11-21T00:33:01;0.00;;;0.00;;
35990;SDS011;22064;42.672;23.282;2023-11-21T00:35:26;0.08;;;0.08;;
35990;SDS011;22064;42.672;23.282;2023-11-21T00:37:53;0.00;;;0.00;;
35990;SDS011;22064;42.672;23.282;2023-11-21T00:40:19;0.10;;;0.10;;
35990;SDS011;22064;42.672;23.282;2023-11-21T00:42:46;0.10;;;0.10;;
35990;SDS011;22064;42.672;23.282;2023-11-21T00:45:12;0.00;;;0.00;;
35990;SDS011;22064;42.672;23.282;2023-11-21T00:47:38;0.00;;;0.00;;
35990;SDS011;22064;42.672;23.282;2023-11-21T00:50:04;0.00;;;0.00;;
35990;SDS011;22064;42.672;23.282;2023-11-21T00:52:34;0.00;;;0.00;;
35990;SDS011;22064;42.672;23.282;2023-11-21T00:55:01;3.30;;;1.75;;
35990;SDS011;22064;42.672;23.282;2023-11-21T00:57:28;0.00;;;0.00;;
35990;SDS011;22064;42.672;23.282;2023-11-21T00:59:55;0.00;;;0.00;;
35990;SDS011;22064;42.672;23.282;2023-11-21T01:02:20;0.00;;;0.00;;
35990;SDS011;22064;42.672;23.282;2023-11-21T01:04:46;3.65;;;1.60;;
35990;SDS011;22064;42.672;23.282;2023-11-21T01:07:13;0.30;;;0.30;;
35990;SDS011;22064;42.672;23.282;2023-11-21T01:09:39;0.00;;;0.00;;
35990;SDS011;22064;42.672;23.282;2023-11-21T01:12:06;0.95;;;0.95;;
35990;SDS011;22064;42.672;23.282;2023-11-21T01:14:33;0.00;;;0.00;;
35990;SDS011;22064;42.672;23.282;2023-11-21T01:16:59;0.00;;;0.00;;
35990;SDS011;22064;42.672;23.282;2023-11-21T01:19:24;0.15;;;0.15;;
35990;SDS011;22064;42.672;23.282;2023-11-21T01:21:50;0.68;;;0.68;;
35990;SDS011;22064;42.672;23.282;2023-11-21T01:24:17;0.30;;;0.30;;
35990;SDS011;22064;42.672;23.282;2023-11-21T01:26:43;0.10;;;0.10;;
35990;SDS011;22064;42.672;23.282;2023-11-21T01:29:10;0.00;;;0.00;;
35990;SDS011;22064;42.672;23.282;2023-11-21T01:31:36;0.77;;;0.77;;
35990;SDS011;22064;42.672;23.282;2023-11-21T01:34:02;0.20;;;0.20;;
35990;SDS011;22064;42.672;23.282;2023-11-21T01:36:32;0.10;;;0.10;;
35990;SDS011;22064;42.672;23.282;2023-11-21T01:41:27;0.10;;;0.10;;
35990;SDS011;22064;42.672;23.282;2023-11-21T01:43:54;0.20;;;0.20;;
35990;SDS011;22064;42.672;23.282;2023-11-21T01:46:20;0.10;;;0.10;;
35990;SDS011;22064;42.672;23.282;2023-11-21T01:48:48;0.08;;;0.08;;
35990;SDS011;22064;42.672;23.282;2023-11-21T01:51:15;0.10;;;0.10;;
35990;SDS011;22064;42.672;23.282;2023-11-21T01:53:42;0.15;;;0.15;;
35990;SDS011;22064;42.672;23.282;2023-11-21T01:56:08;6.50;;;6.05;;
35990;SDS011;22064;42.672;23.282;2023-11-21T01:58:35;0.00;;;0.00;;
35990;SDS011;22064;42.672;23.282;2023-11-21T02:01:02;0.00;;;0.00;;
35990;SDS011;22064;42.672;23.282;2023-11-21T02:03:28;0.00;;;0.00;;
35990;SDS011;22064;42.672;23.282;2023-11-21T02:05:54;4.13;;;2.80;;
35990;SDS011;22064;42.672;23.282;2023-11-21T02:08:20;0.00;;;0.00;;
35990;SDS011;22064;42.672;23.282;2023-11-21T02:10:45;0.00;;;0.00;;
35990;SDS011;22064;42.672;23.282;2023-11-21T02:13:13;0.00;;;0.00;;
35990;SDS011;22064;42.672;23.282;2023-11-21T02:15:39;0.00;;;0.00;;
35990;SDS011;22064;42.672;23.282;2023-11-21T02:18:05;0.00;;;0.00;;
35990;SDS011;22064;42.672;23.282;2023-11-21T02:20:31;0.00;;;0.00;;
35990;SDS011;22064;42.672;23.282;2023-11-21T02:23:00;0.00;;;0.00;;
35990;SDS011;22064;42.672;23.282;2023-11-21T02:25:27;0.00;;;0.00;;
35990;SDS011;22064;42.672;23.282;2023-11-21T02:27:57;0.00;;;0.00;;
35990;SDS011;22064;42.672;23.282;2023-11-21T02:30:25;2.30;;;1.55;;
35990;SDS011;22064;42.672;23.282;2023-11-21T02:32:53;0.20;;;0.20;;
35990;SDS011;22064;42.672;23.282;2023-11-21T02:35:22;0.43;;;0.43;;
35990;SDS011;22064;42.672;23.282;2023-11-21T02:37:49;0.00;;;0.00;;
35990;SDS011;22064;42.672;23.282;2023-11-21T02:40:15;0.00;;;0.00;;
35990;SDS011;22064;42.672;23.282;2023-11-21T02:42:49;0.20;;;0.20;;
35990;SDS011;22064;42.672;23.282;2023-11-21T02:45:19;0.10;;;0.10;;
35990;SDS011;22064;42.672;23.282;2023-11-21T02:47:46;0.80;;;0.80;;
35990;SDS011;22064;42.672;23.282;2023-11-21T02:50:13;0.35;;;0.35;;
35990;SDS011;22064;42.672;23.282;2023-11-21T02:52:39;0.00;;;0.00;;
35990;SDS011;22064;42.672;23.282;2023-11-21T02:55:07;0.20;;;0.20;;
35990;SDS011;22064;42.672;23.282;2023-11-21T02:57:33;0.00;;;0.00;;
35990;SDS011;22064;42.672;23.282;2023-11-21T02:59:59;0.00;;;0.00;;
35990;SDS011;22064;42.672;23.282;2023-11-21T03:02:26;1.00;;;0.95;;
35990;SDS011;22064;42.672;23.282;2023-11-21T03:04:52;0.00;;;0.00;;
35990;SDS011;22064;42.672;23.282;2023-11-21T03:07:18;0.00;;;0.00;;
35990;SDS011;22064;42.672;23.282;2023-11-21T03:09:45;0.00;;;0.00;;
35990;SDS011;22064;42.672;23.282;2023-11-21T03:12:11;0.10;;;0.10;;
35990;SDS011;22064;42.672;23.282;2023-11-21T03:14:41;0.13;;;0.13;;
35990;SDS011;22064;42.672;23.282;2023-11-21T03:17:07;2.00;;;1.05;;
35990;SDS011;22064;42.672;23.282;2023-11-21T03:19:33;0.40;;;0.30;;
35990;SDS011;22064;42.672;23.282;2023-11-21T03:21:59;0.10;;;0.10;;
35990;SDS011;22064;42.672;23.282;2023-11-21T03:24:25;0.20;;;0.20;;
35990;SDS011;22064;42.672;23.282;2023-11-21T03:26:51;0.90;;;0.90;;
35990;SDS011;22064;42.672;23.282;2023-11-21T03:29:18;0.47;;;0.22;;
35990;SDS011;22064;42.672;23.282;2023-11-21T03:31:44;1.73;;;0.90;;
35990;SDS011;22064;42.672;23.282;2023-11-21T03:34:14;0.03;;;0.03;;
35990;SDS011;22064;42.672;23.282;2023-11-21T03:36:43;0.00;;;0.00;;
35990;SDS011;22064;42.672;23.282;2023-11-21T03:39:08;0.40;;;0.40;;
35990;SDS011;22064;42.672;23.282;2023-11-21T03:41:34;0.40;;;0.40;;
35990;SDS011;22064;42.672;23.282;2023-11-21T03:44:00;0.10;;;0.10;;
35990;SDS011;22064;42.672;23.282;2023-11-21T03:46:26;0.00;;;0.00;;
35990;SDS011;22064;42.672;23.282;2023-11-21T03:48:52;0.30;;;0.30;;
35990;SDS011;22064;42.672;23.282;2023-11-21T03:51:18;0.55;;;0.55;;
35990;SDS011;22064;42.672;23.282;2023-11-21T03:53:44;0.30;;;0.30;;
35990;SDS011;22064;42.672;23.282;2023-11-21T03:56:09;0.00;;;0.00;;
35990;SDS011;22064;42.672;23.282;2023-11-21T03:58:35;0.00;;;0.00;;
35990;SDS011;22064;42.672;23.282;2023-11-21T04:01:01;0.17;;;0.17;;
35990;SDS011;22064;42.672;23.282;2023-11-21T04:03:27;0.08;;;0.08;;
35990;SDS011;22064;42.672;23.282;2023-11-21T04:05:53;1.33;;;0.75;;
35990;SDS011;22064;42.672;23.282;2023-11-21T04:08:19;0.30;;;0.30;;
35990;SDS011;22064;42.672;23.282;2023-11-21T04:10:44;0.10;;;0.10;;
35990;SDS011;22064;42.672;23.282;2023-11-21T04:13:10;0.25;;;0.25;;
35990;SDS011;22064;42.672;23.282;2023-11-21T04:15:36;0.00;;;0.00;;
35990;SDS011;22064;42.672;23.282;2023-11-21T04:18:02;1.20;;;0.95;;
35990;SDS011;22064;42.672;23.282;2023-11-21T04:20:28;0.10;;;0.10;;
35990;SDS011;22064;42.672;23.282;2023-11-21T04:22:54;0.00;;;0.00;;
35990;SDS011;22064;42.672;23.282;2023-11-21T04:25:20;0.00;;;0.00;;
35990;SDS011;22064;42.672;23.282;2023-11-21T04:27:46;0.55;;;0.55;;
35990;SDS011;22064;42.672;23.282;2023-11-21T04:30:12;0.00;;;0.00;;
35990;SDS011;22064;42.672;23.282;2023-11-21T04:32:39;0.88;;;0.88;;
35990;SDS011;22064;42.672;23.282;2023-11-21T04:35:05;0.00;;;0.00;;
35990;SDS011;22064;42.672;23.282;2023-11-21T04:37:31;1.02;;;0.95;;
35990;SDS011;22064;42.672;23.282;2023-11-21T04:39:57;1.75;;;1.65;;
35990;SDS011;22064;42.672;23.282;2023-11-21T04:42:23;4.90;;;4.60;;
35990;SDS011;22064;42.672;23.282;2023-11-21T04:44:49;0.08;;;0.08;;
35990;SDS011;22064;42.672;23.282;2023-11-21T04:47:15;2.08;;;1.98;;
35990;SDS011;22064;42.672;23.282;2023-11-21T04:49:45;0.08;;;0.08;;
35990;SDS011;22064;42.672;23.282;2023-11-21T04:52:15;1.55;;;1.27;;
35990;SDS011;22064;42.672;23.282;2023-11-21T04:54:40;2.72;;;2.53;;
35990;SDS011;22064;42.672;23.282;2023-11-21T04:57:06;0.00;;;0.00;;
35990;SDS011;22064;42.672;23.282;2023-11-21T04:59:35;0.75;;;0.57;;
35990;SDS011;22064;42.672;23.282;2023-11-21T05:02:01;5.47;;;5.05;;
35990;SDS011;22064;42.672;23.282;2023-11-21T05:04:28;2.05;;;1.25;;
35990;SDS011;22064;42.672;23.282;2023-11-21T05:06:54;2.25;;;2.08;;
35990;SDS011;22064;42.672;23.282;2023-11-21T05:09:20;3.40;;;0.80;;
35990;SDS011;22064;42.672;23.282;2023-11-21T05:11:47;0.00;;;0.00;;
35990;SDS011;22064;42.672;23.282;2023-11-21T05:14:13;0.00;;;0.00;;
35990;SDS011;22064;42.672;23.282;2023-11-21T05:16:39;0.00;;;0.00;;
35990;SDS011;22064;42.672;23.282;2023-11-21T05:19:05;1.00;;;1.00;;
35990;SDS011;22064;42.672;23.282;2023-11-21T05:21:32;0.30;;;0.30;;
35990;SDS011;22064;42.672;23.282;2023-11-21T05:23:58;0.10;;;0.10;;
35990;SDS011;22064;42.672;23.282;2023-11-21T05:26:24;0.17;;;0.17;;
35990;SDS011;22064;42.672;23.282;2023-11-21T05:28:50;4.50;;;1.95;;
35990;SDS011;22064;42.672;23.282;2023-11-21T05:31:16;4.60;;;1.73;;
35990;SDS011;22064;42.672;23.282;2023-11-21T05:33:42;2.03;;;1.13;;
35990;SDS011;22064;42.672;23.282;2023-11-21T05:36:08;4.38;;;4.07;;
35990;SDS011;22064;42.672;23.282;2023-11-21T05:38:35;2.03;;;0.60;;
35990;SDS011;22064;42.672;23.282;2023-11-21T05:41:02;2.75;;;2.00;;
35990;SDS011;22064;42.672;23.282;2023-11-21T05:43:30;1.25;;;0.65;;
35990;SDS011;22064;42.672;23.282;2023-11-21T05:45:56;10.60;;;3.58;;
35990;SDS011;22064;42.672;23.282;2023-11-21T05:48:22;0.75;;;0.75;;
35990;SDS011;22064;42.672;23.282;2023-11-21T05:50:49;0.00;;;0.00;;
35990;SDS011;22064;42.672;23.282;2023-11-21T05:53:15;0.10;;;0.10;;
35990;SDS011;22064;42.672;23.282;2023-11-21T05:55:42;0.20;;;0.20;;
35990;SDS011;22064;42.672;23.282;2023-11-21T05:58:08;0.00;;;0.00;;
35990;SDS011;22064;42.672;23.282;2023-11-21T06:00:34;0.22;;;0.22;;
35990;SDS011;22064;42.672;23.282;2023-11-21T06:03:00;0.68;;;0.68;;
35990;SDS011;22064;42.672;23.282;2023-11-21T06:05:26;0.20;;;0.20;;
35990;SDS011;22064;42.672;23.282;2023-11-21T06:07:55;2.30;;;2.10;;
35990;SDS011;22064;42.672;23.282;2023-11-21T06:10:24;0.10;;;0.10;;
35990;SDS011;22064;42.672;23.282;2023-11-21T06:12:51;2.45;;;1.40;;
35990;SDS011;22064;42.672;23.282;2023-11-21T06:15:18;4.38;;;2.67;;
35990;SDS011;22064;42.672;23.282;2023-11-21T06:17:48;2.22;;;1.85;;
35990;SDS011;22064;42.672;23.282;2023-11-21T06:22:48;2.63;;;1.45;;
35990;SDS011;22064;42.672;23.282;2023-11-21T06:25:15;8.15;;;5.53;;
35990;SDS011;22064;42.672;23.282;2023-11-21T06:27:43;0.82;;;0.70;;
35990;SDS011;22064;42.672;23.282;2023-11-21T06:30:10;1.58;;;1.48;;
35990;SDS011;22064;42.672;23.282;2023-11-21T06:32:39;7.68;;;4.53;;
35990;SDS011;22064;42.672;23.282;2023-11-21T06:35:05;7.45;;;4.40;;
35990;SDS011;22064;42.672;23.282;2023-11-21T06:37:32;4.40;;;2.67;;
35990;SDS011;22064;42.672;23.282;2023-11-21T06:39:59;8.82;;;4.85;;
35990;SDS011;22064;42.672;23.282;2023-11-21T06:42:26;18.20;;;7.68;;
35990;SDS011;22064;42.672;23.282;2023-11-21T06:44:52;2.75;;;2.50;;
35990;SDS011;22064;42.672;23.282;2023-11-21T06:47:27;5.63;;;4.97;;
35990;SDS011;22064;42.672;23.282;2023-11-21T06:49:55;10.63;;;5.22;;
35990;SDS011;22064;42.672;23.282;2023-11-21T06:52:21;1.80;;;1.55;;
35990;SDS011;22064;42.672;23.282;2023-11-21T06:54:47;3.65;;;2.20;;
35990;SDS011;22064;42.672;23.282;2023-11-21T06:57:14;7.78;;;5.68;;
35990;SDS011;22064;42.672;23.282;2023-11-21T06:59:41;4.63;;;3.53;;
35990;SDS011;22064;42.672;23.282;2023-11-21T07:02:07;0.43;;;0.38;;
35990;SDS011;22064;42.672;23.282;2023-11-21T07:04:35;2.17;;;1.33;;
35990;SDS011;22064;42.672;23.282;2023-11-21T07:07:02;0.13;;;0.13;;
35990;SDS011;22064;42.672;23.282;2023-11-21T07:09:29;6.80;;;6.15;;
35990;SDS011;22064;42.672;23.282;2023-11-21T07:11:55;0.03;;;0.03;;
35990;SDS011;22064;42.672;23.282;2023-11-21T07:14:21;0.00;;;0.00;;
35990;SDS011;22064;42.672;23.282;2023-11-21T07:16:47;5.70;;;5.38;;
35990;SDS011;22064;42.672;23.282;2023-11-21T07:19:13;1.77;;;1.67;;
35990;SDS011;22064;42.672;23.282;2023-11-21T07:21:40;0.08;;;0.08;;
35990;SDS011;22064;42.672;23.282;2023-11-21T07:24:06;0.08;;;0.08;;
35990;SDS011;22064;42.672;23.282;2023-11-21T07:26:33;0.13;;;0.13;;
35990;SDS011;22064;42.672;23.282;2023-11-21T07:29:00;1.90;;;1.80;;
35990;SDS011;22064;42.672;23.282;2023-11-21T07:31:28;0.05;;;0.05;;
35990;SDS011;22064;42.672;23.282;2023-11-21T07:33:54;0.00;;;0.00;;
35990;SDS011;22064;42.672;23.282;2023-11-21T07:36:23;0.08;;;0.08;;
35990;SDS011;22064;42.672;23.282;2023-11-21T07:38:49;0.57;;;0.57;;
35990;SDS011;22064;42.672;23.282;2023-11-21T07:41:17;0.00;;;0.00;;
35990;SDS011;22064;42.672;23.282;2023-11-21T07:43:46;3.33;;;3.13;;
35990;SDS011;22064;42.672;23.282;2023-11-21T07:46:13;0.10;;;0.10;;
35990;SDS011;22064;42.672;23.282;2023-11-21T07:48:39;0.00;;;0.00;;
35990;SDS011;22064;42.672;23.282;2023-11-21T07:51:06;0.15;;;0.15;;
35990;SDS011;22064;42.672;23.282;2023-11-21T07:53:32;0.35;;;0.35;;
35990;SDS011;22064;42.672;23.282;2023-11-21T07:55:58;0.17;;;0.17;;
35990;SDS011;22064;42.672;23.282;2023-11-21T07:58:28;0.00;;;0.00;;
35990;SDS011;22064;42.672;23.282;2023-11-21T08:00:54;0.20;;;0.20;;
35990;SDS011;22064;42.672;23.282;2023-11-21T08:03:19;18.13;;;2.83;;
35990;SDS011;22064;42.672;23.282;2023-11-21T08:05:46;3.30;;;3.10;;
35990;SDS011;22064;42.672;23.282;2023-11-21T08:08:12;2.10;;;1.98;;
35990;SDS011;22064;42.672;23.282;2023-11-21T08:10:38;0.10;;;0.10;;
35990;SDS011;22064;42.672;23.282;2023-11-21T08:13:04;3.97;;;1.27;;
35990;SDS011;22064;42.672;23.282;2023-11-21T08:15:31;0.00;;;0.00;;
35990;SDS011;22064;42.672;23.282;2023-11-21T08:17:58;3.58;;;2.55;;
35990;SDS011;22064;42.672;23.282;2023-11-21T08:20:26;0.00;;;0.00;;
35990;SDS011;22064;42.672;23.282;2023-11-21T08:22:53;0.10;;;0.10;;
35990;SDS011;22064;42.672;23.282;2023-11-21T08:25:20;2.00;;;1.90;;
35990;SDS011;22064;42.672;23.282;2023-11-21T08:27:47;5.18;;;3.17;;
35990;SDS011;22064;42.672;23.282;2023-11-21T08:30:13;0.10;;;0.10;;
35990;SDS011;22064;42.672;23.282;2023-11-21T08:32:42;0.00;;;0.00;;
35990;SDS011;22064;42.672;23.282;2023-11-21T08:35:08;6.03;;;1.70;;
35990;SDS011;22064;42.672;23.282;2023-11-21T08:37:34;0.10;;;0.10;;
35990;SDS011;22064;42.672;23.282;2023-11-21T08:40:05;0.82;;;0.82;;
35990;SDS011;22064;42.672;23.282;2023-11-21T08:42:35;7.45;;;3.35;;
35990;SDS011;22064;42.672;23.282;2023-11-21T08:45:01;0.77;;;0.77;;
35990;SDS011;22064;42.672;23.282;2023-11-21T08:47:27;11.57;;;6.80;;
35990;SDS011;22064;42.672;23.282;2023-11-21T08:49:53;3.58;;;1.10;;
35990;SDS011;22064;42.672;23.282;2023-11-21T08:52:19;4.28;;;1.88;;
35990;SDS011;22064;42.672;23.282;2023-11-21T08:54:49;4.43;;;2.25;;
35990;SDS011;22064;42.672;23.282;2023-11-21T08:57:24;1.40;;;1.30;;
35990;SDS011;22064;42.672;23.282;2023-11-21T08:59:51;3.47;;;2.95;;
35990;SDS011;22064;42.672;23.282;2023-11-21T09:02:21;3.95;;;3.28;;
35990;SDS011;22064;42.672;23.282;2023-11-21T09:04:51;8.15;;;7.35;;
35990;SDS011;22064;42.672;23.282;2023-11-21T09:07:18;2.60;;;2.40;;
35990;SDS011;22064;42.672;23.282;2023-11-21T09:09:46;3.97;;;2.67;;
35990;SDS011;22064;42.672;23.282;2023-11-21T09:12:13;0.98;;;0.98;;
35990;SDS011;22064;42.672;23.282;2023-11-21T09:14:39;4.03;;;3.83;;
35990;SDS011;22064;42.672;23.282;2023-11-21T09:17:05;0.20;;;0.20;;
35990;SDS011;22064;42.672;23.282;2023-11-21T09:19:39;5.43;;;2.25;;
35990;SDS011;22064;42.672;23.282;2023-11-21T09:22:05;0.00;;;0.00;;
35990;SDS011;22064;42.672;23.282;2023-11-21T09:24:32;1.45;;;1.35;;
35990;SDS011;22064;42.672;23.282;2023-11-21T09:26:58;0.05;;;0.05;;
35990;SDS011;22064;42.672;23.282;2023-11-21T09:29:26;0.10;;;0.10;;
35990;SDS011;22064;42.672;23.282;2023-11-21T09:31:52;28.92;;;13.18;;
35990;SDS011;22064;42.672;23.282;2023-11-21T09:34:20;22.88;;;11.68;;
35990;SDS011;22064;42.672;23.282;2023-11-21T09:36:47;26.83;;;10.73;;
35990;SDS011;22064;42.672;23.282;2023-11-21T09:39:13;22.30;;;10.68;;
35990;SDS011;22064;42.672;23.282;2023-11-21T09:41:43;21.95;;;10.60;;
35990;SDS011;22064;42.672;23.282;2023-11-21T09:44:13;26.58;;;11.95;;
35990;SDS011;22064;42.672;23.282;2023-11-21T09:46:43;23.88;;;11.60;;
35990;SDS011;22064;42.672;23.282;2023-11-21T09:49:13;24.90;;;11.05;;
35990;SDS011;22064;42.672;23.282;2023-11-21T09:51:43;27.13;;;11.13;;
35990;SDS011;22064;42.672;23.282;2023-11-21T09:54:10;25.95;;;10.90;;
35990;SDS011;22064;42.672;23.282;2023-11-21T09:56:39;24.65;;;11.75;;
35990;SDS011;22064;42.672;23.282;2023-11-21T09:59:05;24.58;;;10.55;;
35990;SDS011;22064;42.672;23.282;2023-11-21T10:04:04;27.60;;;10.80;;
35990;SDS011;22064;42.672;23.282;2023-11-21T10:06:40;25.83;;;10.85;;
35990;SDS011;22064;42.672;23.282;2023-11-21T10:09:12;26.05;;;11.05;;
35990;SDS011;22064;42.672;23.282;2023-11-21T10:11:42;23.73;;;9.80;;
35990;SDS011;22064;42.672;23.282;2023-11-21T10:14:12;20.55;;;9.45;;
35990;SDS011;22064;42.672;23.282;2023-11-21T10:16:40;25.48;;;10.13;;
35990;SDS011;22064;42.672;23.282;2023-11-21T10:19:08;23.80;;;11.00;;
35990;SDS011;22064;42.672;23.282;2023-11-21T10:21:35;26.38;;;11.23;;
35990;SDS011;22064;42.672;23.282;2023-11-21T10:24:01;23.38;;;11.35;;
35990;SDS011;22064;42.672;23.282;2023-11-21T10:26:27;28.35;;;10.65;;
35990;SDS011;22064;42.672;23.282;2023-11-21T10:28:57;30.95;;;12.20;;
35990;SDS011;22064;42.672;23.282;2023-11-21T10:31:27;25.48;;;11.48;;
35990;SDS011;22064;42.672;23.282;2023-11-21T10:33:53;22.55;;;10.75;;
35990;SDS011;22064;42.672;23.282;2023-11-21T10:36:26;25.92;;;10.65;;
35990;SDS011;22064;42.672;23.282;2023-11-21T10:38:53;23.10;;;10.55;;
35990;SDS011;22064;42.672;23.282;2023-11-21T10:41:20;25.40;;;10.68;;
35990;SDS011;22064;42.672;23.282;2023-11-21T10:43:46;25.42;;;11.27;;
35990;SDS011;22064;42.672;23.282;2023-11-21T10:46:13;28.02;;;10.88;;
35990;SDS011;22064;42.672;23.282;2023-11-21T10:48:43;24.80;;;11.63;;
35990;SDS011;22064;42.672;23.282;2023-11-21T10:51:09;26.48;;;11.48;;
35990;SDS011;22064;42.672;23.282;2023-11-21T10:53:41;26.38;;;11.15;;
35990;SDS011;22064;42.672;23.282;2023-11-21T10:56:08;25.67;;;12.63;;
35990;SDS011;22064;42.672;23.282;2023-11-21T10:58:39;24.33;;;10.55;;
35990;SDS011;22064;42.672;23.282;2023-11-21T11:01:06;27.40;;;12.20;;
35990;SDS011;22064;42.672;23.282;2023-11-21T11:03:33;25.58;;;12.07;;
35990;SDS011;22064;42.672;23.282;2023-11-21T11:06:02;32.55;;;13.88;;
35990;SDS011;22064;42.672;23.282;2023-11-21T11:08:30;28.63;;;13.25;;
35990;SDS011;22064;42.672;23.282;2023-11-21T11:10:57;31.05;;;14.82;;
35990;SDS011;22064;42.672;23.282;2023-11-21T11:13:24;30.60;;;14.02;;
35990;SDS011;22064;42.672;23.282;2023-11-21T11:15:51;36.90;;;15.18;;
35990;SDS011;22064;42.672;23.282;2023-11-21T11:18:25;33.08;;;14.05;;
35990;SDS011;22064;42.672;23.282;2023-11-21T11:20:51;31.90;;;13.95;;
35990;SDS011;22064;42.672;23.282;2023-11-21T11:29:21;30.08;;;13.70;;
35990;SDS011;22064;42.672;23.282;2023-11-21T11:34:43;29.50;;;13.65;;
35990;SDS011;22064;42.672;23.282;2023-11-21T11:37:15;30.08;;;12.63;;
35990;SDS011;22064;42.672;23.282;2023-11-21T11:39:42;29.45;;;13.02;;
35990;SDS011;22064;42.672;23.282;2023-11-21T11:42:12;35.75;;;13.93;;
35990;SDS011;22064;42.672;23.282;2023-11-21T11:47:20;28.90;;;12.35;;
35990;SDS011;22064;42.672;23.282;2023-11-21T11:50:00;25.95;;;11.90;;
35990;SDS011;22064;42.672;23.282;2023-11-21T11:52:40;24.65;;;11.70;;
35990;SDS011;22064;42.672;23.282;2023-11-21T11:55:08;26.73;;;12.07;;
35990;SDS011;22064;42.672;23.282;2023-11-21T11:57:35;26.73;;;10.75;;
35990;SDS011;22064;42.672;23.282;2023-11-21T12:02:40;25.02;;;10.35;;
35990;SDS011;22064;42.672;23.282;2023-11-21T12:05:13;22.38;;;11.27;;
35990;SDS011;22064;42.672;23.282;2023-11-21T12:07:47;27.77;;;11.57;;
35990;SDS011;22064;42.672;23.282;2023-11-21T12:10:15;24.00;;;12.02;;
35990;SDS011;22064;42.672;23.282;2023-11-21T12:12:53;35.80;;;15.45;;
35990;SDS011;22064;42.672;23.282;2023-11-21T12:15:33;36.45;;;16.08;;
35990;SDS011;22064;42.672;23.282;2023-11-21T12:18:00;37.47;;;17.17;;
35990;SDS011;22064;42.672;23.282;2023-11-21T12:20:26;38.40;;;16.55;;
35990;SDS011;22064;42.672;23.282;2023-11-21T12:25:27;45.67;;;19.55;;
35990;SDS011;22064;42.672;23.282;2023-11-21T12:27:55;37.35;;;17.80;;
35990;SDS011;22064;42.672;23.282;2023-11-21T12:30:23;47.70;;;21.83;;
35990;SDS011;22064;42.672;23.282;2023-11-21T12:32:54;44.40;;;20.25;;
35990;SDS011;22064;42.672;23.282;2023-11-21T12:35:21;47.55;;;22.40;;
35990;SDS011;22064;42.672;23.282;2023-11-21T12:37:49;43.10;;;20.10;;
35990;SDS011;22064;42.672;23.282;2023-11-21T12:40:17;49.17;;;23.52;;
35990;SDS011;22064;42.672;23.282;2023-11-21T12:42:47;50.55;;;23.75;;
35990;SDS011;22064;42.672;23.282;2023-11-21T12:47:43;40.75;;;19.95;;
35990;SDS011;22064;42.672;23.282;2023-11-21T12:50:10;44.15;;;19.55;;
35990;SDS011;22064;42.672;23.282;2023-11-21T12:52:45;42.05;;;19.98;;
35990;SDS011;22064;42.672;23.282;2023-11-21T12:55:15;44.13;;;20.58;;
35990;SDS011;22064;42.672;23.282;2023-11-21T12:57:45;42.30;;;19.98;;
35990;SDS011;22064;42.672;23.282;2023-11-21T13:00:15;44.20;;;19.75;;
35990;SDS011;22064;42.672;23.282;2023-11-21T13:02:56;50.70;;;22.00;;
35990;SDS011;22064;42.672;23.282;2023-11-21T13:05:30;45.17;;;22.30;;
35990;SDS011;22064;42.672;23.282;2023-11-21T13:07:58;45.38;;;21.15;;
35990;SDS011;22064;42.672;23.282;2023-11-21T13:10:29;43.45;;;19.88;;
35990;SDS011;22064;42.672;23.282;2023-11-21T13:12:57;45.63;;;22.02;;
35990;SDS011;22064;42.672;23.282;2023-11-21T13:15:24;44.50;;;21.60;;
35990;SDS011;22064;42.672;23.282;2023-11-21T13:17:51;43.90;;;22.52;;
35990;SDS011;22064;42.672;23.282;2023-11-21T13:20:19;40.63;;;21.05;;
35990;SDS011;22064;42.672;23.282;2023-11-21T13:25:17;47.50;;;22.20;;
35990;SDS011;22064;42.672;23.282;2023-11-21T13:27:46;41.63;;;21.13;;
35990;SDS011;22064;42.672;23.282;2023-11-21T13:30:13;43.30;;;21.52;;
35990;SDS011;22064;42.672;23.282;2023-11-21T13:32:43;37.72;;;19.33;;
35990;SDS011;22064;42.672;23.282;2023-11-21T13:35:12;43.38;;;18.95;;
35990;SDS011;22064;42.672;23.282;2023-11-21T13:37:49;40.92;;;19.90;;
35990;SDS011;22064;42.672;23.282;2023-11-21T13:40:24;40.55;;;21.23;;
35990;SDS011;22064;42.672;23.282;2023-11-21T13:42:53;47.85;;;22.58;;
35990;SDS011;22064;42.672;23.282;2023-11-21T13:45:23;47.63;;;21.38;;
35990;SDS011;22064;42.672;23.282;2023-11-21T13:47:50;46.15;;;20.48;;
35990;SDS011;22064;42.672;23.282;2023-11-21T13:50:18;49.30;;;24.58;;
35990;SDS011;22064;42.672;23.282;2023-11-21T13:52:48;61.70;;;29.05;;
35990;SDS011;22064;42.672;23.282;2023-11-21T13:55:18;56.85;;;26.30;;
35990;SDS011;22064;42.672;23.282;2023-11-21T13:57:45;54.22;;;28.23;;
35990;SDS011;22064;42.672;23.282;2023-11-21T14:00:15;55.95;;;25.73;;
35990;SDS011;22064;42.672;23.282;2023-11-21T14:03:16;53.38;;;27.05;;
35990;SDS011;22064;42.672;23.282;2023-11-21T14:05:45;55.40;;;27.38;;
35990;SDS011;22064;42.672;23.282;2023-11-21T14:08:22;55.22;;;28.48;;
35990;SDS011;22064;42.672;23.282;2023-11-21T14:10:54;55.80;;;23.27;;
35990;SDS011;22064;42.672;23.282;2023-11-21T14:13:25;53.38;;;28.63;;
35990;SDS011;22064;42.672;23.282;2023-11-21T14:15:52;53.58;;;28.55;;
35990;SDS011;22064;42.672;23.282;2023-11-21T14:18:28;53.00;;;25.95;;
35990;SDS011;22064;42.672;23.282;2023-11-21T14:21:04;58.38;;;28.95;;
35990;SDS011;22064;42.672;23.282;2023-11-21T14:23:36;57.53;;;29.95;;
35990;SDS011;22064;42.672;23.282;2023-11-21T14:26:03;53.67;;;28.58;;
35990;SDS011;22064;42.672;23.282;2023-11-21T14:28:31;51.35;;;25.17;;
35990;SDS011;22064;42.672;23.282;2023-11-21T14:30:59;54.13;;;26.58;;
35990;SDS011;22064;42.672;23.282;2023-11-21T14:33:25;55.08;;;27.67;;
35990;SDS011;22064;42.672;23.282;2023-11-21T14:35:51;54.33;;;24.58;;
35990;SDS011;22064;42.672;23.282;2023-11-21T14:38:17;54.20;;;26.08;;
35990;SDS011;22064;42.672;23.282;2023-11-21T14:40:43;51.67;;;24.75;;
35990;SDS011;22064;42.672;23.282;2023-11-21T14:43:10;50.63;;;24.63;;
35990;SDS011;22064;42.672;23.282;2023-11-21T14:45:35;45.55;;;21.52;;
35990;SDS011;22064;42.672;23.282;2023-11-21T14:48:01;48.28;;;24.17;;
35990;SDS011;22064;42.672;23.282;2023-11-21T14:50:30;48.00;;;23.45;;
35990;SDS011;22064;42.672;23.282;2023-11-21T14:53:08;57.17;;;25.85;;
35990;SDS011;22064;42.672;23.282;2023-11-21T14:55:36;51.30;;;25.02;;
35990;SDS011;22064;42.672;23.282;2023-11-21T14:58:11;54.00;;;25.33;;